createdAt,value
2016-09-20T00:00:08.147Z,0
2016-09-20T00:01:18.139Z,0
2016-09-20T00:02:28.133Z,0
2016-09-20T00:03:38.113Z,0
2016-09-20T00:04:48.105Z,0
2016-09-20T00:05:58.382Z,0
2016-09-20T00:07:08.659Z,0
2016-09-20T00:08:18.660Z,0
2016-09-20T00:09:28.936Z,0
2016-09-20T00:10:38.934Z,0
2016-09-20T00:11:49.219Z,0
2016-09-20T00:12:59.208Z,0
2016-09-20T00:14:09.503Z,0
2016-09-20T00:15:19.787Z,0
2016-09-20T00:16:29.452Z,0
2016-09-20T00:17:39.755Z,0
2016-09-20T00:18:49.755Z,0
2016-09-20T00:20:00.041Z,0
2016-09-20T00:21:10.333Z,0
2016-09-20T00:22:20.347Z,0
2016-09-20T00:23:30.033Z,0
2016-09-20T00:24:40.035Z,0
2016-09-20T00:25:50.331Z,0
2016-09-20T00:27:00.317Z,0
2016-09-20T00:28:10.639Z,0
2016-09-20T00:29:20.925Z,0
2016-09-20T00:30:30.610Z,0
2016-09-20T00:31:40.300Z,0
2016-09-20T00:32:50.592Z,0
2016-09-20T00:34:00.893Z,0
2016-09-20T00:35:11.169Z,0
2016-09-20T00:36:21.137Z,0
2016-09-20T00:37:31.443Z,0
2016-09-20T00:38:41.770Z,0
2016-09-20T00:39:52.084Z,0
2016-09-20T00:41:02.377Z,0
2016-09-20T00:42:12.043Z,0
2016-09-20T00:43:22.336Z,0
2016-09-20T00:44:32.332Z,0
2016-09-20T00:45:42.324Z,0
2016-09-20T00:46:52.613Z,0
2016-09-20T00:48:02.598Z,0
2016-09-20T00:49:12.574Z,0
2016-09-20T00:50:22.251Z,0
2016-09-20T00:51:32.534Z,0
2016-09-20T00:52:42.831Z,0
2016-09-20T00:53:52.808Z,0
2016-09-20T00:55:03.098Z,0
2016-09-20T00:56:13.093Z,0
2016-09-20T00:57:23.380Z,0
2016-09-20T00:58:33.683Z,0
2016-09-20T00:59:43.971Z,0
2016-09-20T01:00:53.961Z,0
2016-09-20T01:02:34.643Z,0
2016-09-20T01:03:44.958Z,0
2016-09-20T01:04:54.642Z,0
2016-09-20T01:06:04.933Z,0
2016-09-20T01:07:14.908Z,0
2016-09-20T01:08:25.213Z,0
2016-09-20T01:09:35.198Z,0
2016-09-20T01:10:44.871Z,0
2016-09-20T01:11:55.164Z,0
2016-09-20T01:13:05.154Z,0
2016-09-20T01:14:15.440Z,0
2016-09-20T01:15:25.732Z,0
2016-09-20T01:16:36.031Z,0
2016-09-20T01:17:46.327Z,0
2016-09-20T01:18:56.603Z,0
2016-09-20T01:20:06.259Z,0
2016-09-20T01:21:15.312Z,0
2016-09-20T01:22:25.279Z,0
2016-09-20T01:23:35.254Z,0
2016-09-20T01:24:45.541Z,0
2016-09-20T01:25:55.210Z,0
2016-09-20T01:27:04.876Z,0
2016-09-20T01:28:15.166Z,0
2016-09-20T01:29:25.148Z,0
2016-09-20T01:30:35.445Z,0
2016-09-20T01:31:45.495Z,0
2016-09-20T01:32:55.462Z,0
2016-09-20T01:34:05.755Z,0
2016-09-20T01:35:16.030Z,0
2016-09-20T01:36:26.313Z,0
2016-09-20T01:37:36.279Z,0
2016-09-20T01:38:45.951Z,0
2016-09-20T01:39:55.928Z,0
2016-09-20T01:41:06.211Z,0
2016-09-20T01:42:15.881Z,0
2016-09-20T01:43:26.158Z,0
2016-09-20T01:44:36.450Z,0
2016-09-20T01:45:46.742Z,0
2016-09-20T01:46:56.714Z,0
2016-09-20T01:48:06.399Z,0
2016-09-20T01:49:16.374Z,0
2016-09-20T01:50:26.344Z,0
2016-09-20T01:51:36.331Z,0
2016-09-20T01:52:46.617Z,0
2016-09-20T01:53:56.898Z,0
2016-09-20T01:55:06.886Z,0
2016-09-20T01:56:17.165Z,0
2016-09-20T01:57:27.464Z,0
2016-09-20T01:58:37.441Z,0
2016-09-20T01:59:47.733Z,0
2016-09-20T02:00:57.389Z,0
2016-09-20T02:02:07.675Z,0
2016-09-20T02:03:17.703Z,0
2016-09-20T02:04:27.058Z,0
2016-09-20T02:05:36.740Z,0
2016-09-20T02:06:47.031Z,0
2016-09-20T02:07:57.328Z,0
2016-09-20T02:09:07.616Z,0
2016-09-20T02:10:17.601Z,0
2016-09-20T02:11:27.581Z,0
2016-09-20T02:12:37.870Z,0
2016-09-20T02:13:47.851Z,0
2016-09-20T02:14:57.848Z,0
2016-09-20T02:16:08.146Z,0
2016-09-20T02:17:18.424Z,0
2016-09-20T02:18:28.709Z,0
2016-09-20T02:19:39.001Z,0
2016-09-20T02:20:49.292Z,0
2016-09-20T02:21:59.614Z,0
2016-09-20T02:23:09.895Z,0
2016-09-20T02:24:19.267Z,0
2016-09-20T02:25:28.335Z,0
2016-09-20T02:26:38.316Z,0
2016-09-20T02:27:48.634Z,0
2016-09-20T02:28:58.602Z,0
2016-09-20T02:30:08.595Z,0
2016-09-20T02:31:18.576Z,0
2016-09-20T02:32:28.569Z,0
2016-09-20T02:33:38.842Z,0
2016-09-20T02:34:48.832Z,0
2016-09-20T02:35:58.839Z,0
2016-09-20T02:37:09.137Z,0
2016-09-20T02:38:19.103Z,0
2016-09-20T02:39:29.383Z,0
2016-09-20T02:40:39.360Z,0
2016-09-20T02:41:49.341Z,0
2016-09-20T02:42:59.309Z,0
2016-09-20T02:44:08.973Z,0
2016-09-20T02:45:19.274Z,0
2016-09-20T02:46:29.574Z,0
2016-09-20T02:47:39.551Z,0
2016-09-20T02:48:49.839Z,0
2016-09-20T02:49:59.849Z,0
2016-09-20T02:51:09.822Z,0
2016-09-20T02:52:19.803Z,0
2016-09-20T02:53:29.786Z,0
2016-09-20T02:54:39.756Z,0
2016-09-20T02:55:49.736Z,0
2016-09-20T02:57:00.026Z,0
2016-09-20T02:58:10.308Z,0
2016-09-20T02:59:19.969Z,0
2016-09-20T03:00:29.649Z,0
2016-09-20T03:32:05.681Z,0
2016-09-20T03:33:15.647Z,0
2016-09-20T03:34:25.932Z,0
2016-09-20T03:35:36.216Z,0
2016-09-20T03:36:46.188Z,0
2016-09-20T03:37:56.484Z,0
2016-09-20T03:39:06.782Z,0
2016-09-20T03:40:16.132Z,0
2016-09-20T03:41:26.408Z,0
2016-09-20T03:42:36.384Z,0
2016-09-20T03:43:46.371Z,0
2016-09-20T03:44:56.663Z,0
2016-09-20T03:46:06.632Z,0
2016-09-20T03:47:16.916Z,0
2016-09-20T03:48:26.587Z,0
2016-09-20T03:49:36.869Z,0
2016-09-20T03:50:46.842Z,0
2016-09-20T03:51:56.818Z,0
2016-09-20T03:53:06.479Z,0
2016-09-20T03:54:16.152Z,0
2016-09-20T03:55:26.438Z,0
2016-09-20T03:56:36.729Z,0
2016-09-20T03:57:47.005Z,0
2016-09-20T03:58:56.973Z,0
2016-09-20T04:00:07.263Z,0
2016-09-20T04:01:17.544Z,0
2016-09-20T04:02:26.907Z,0
2016-09-20T04:03:37.183Z,0
2016-09-20T04:04:46.551Z,0
2016-09-20T04:05:56.526Z,0
2016-09-20T04:07:06.507Z,4
2016-09-20T04:08:16.499Z,4
2016-09-20T04:09:26.782Z,4
2016-09-20T04:10:36.453Z,0
2016-09-20T04:11:46.739Z,0
2016-09-20T04:12:56.712Z,4
2016-09-20T04:14:07.003Z,4
2016-09-20T04:15:16.674Z,4
2016-09-20T04:16:26.061Z,8
2016-09-20T04:17:36.038Z,8
2016-09-20T04:18:46.339Z,8
2016-09-20T04:19:56.012Z,12
2016-09-20T04:21:05.992Z,8
2016-09-20T04:22:15.970Z,16
2016-09-20T04:23:25.951Z,20
2016-09-20T04:24:36.238Z,20
2016-09-20T04:25:46.226Z,28
2016-09-20T04:26:56.501Z,28
2016-09-20T04:28:06.174Z,36
2016-09-20T04:29:16.161Z,44
2016-09-20T04:30:26.457Z,48
2016-09-20T04:31:36.424Z,60
2016-09-20T04:32:46.109Z,68
2016-09-20T04:33:56.407Z,80
2016-09-20T04:35:06.387Z,92
2016-09-20T04:36:16.666Z,108
2016-09-20T04:37:26.637Z,120
2016-09-20T04:38:36.622Z,140
2016-09-20T04:39:46.606Z,152
2016-09-20T04:40:56.602Z,172
2016-09-20T04:42:06.589Z,196
2016-09-20T04:43:16.888Z,212
2016-09-20T04:44:26.854Z,232
2016-09-20T04:45:37.163Z,260
2016-09-20T04:46:47.441Z,284
2016-09-20T04:47:57.733Z,300
2016-09-20T04:49:07.655Z,328
2016-09-20T04:50:17.316Z,376
2016-09-20T04:51:27.611Z,444
2016-09-20T04:52:37.904Z,520
2016-09-20T04:53:47.586Z,584
2016-09-20T04:54:57.566Z,628
2016-09-20T04:56:07.550Z,652
2016-09-20T04:57:17.840Z,672
2016-09-20T04:58:27.199Z,684
2016-09-20T04:59:37.176Z,688
2016-09-20T05:00:47.464Z,688
2016-09-20T05:01:57.463Z,692
2016-09-20T05:03:07.133Z,692
2016-09-20T05:04:17.436Z,680
2016-09-20T05:05:27.729Z,680
2016-09-20T05:06:38.006Z,696
2016-09-20T05:07:47.981Z,724
2016-09-20T05:08:57.959Z,756
2016-09-20T05:10:08.255Z,780
2016-09-20T05:11:18.233Z,812
2016-09-20T05:12:28.224Z,872
2016-09-20T05:13:37.906Z,940
2016-09-20T05:14:47.881Z,996
2016-09-20T05:15:57.861Z,1020
2016-09-20T05:17:07.214Z,1008
2016-09-20T05:18:16.888Z,992
2016-09-20T05:19:27.193Z,1008
2016-09-20T05:20:37.476Z,1024
2016-09-20T05:21:47.752Z,1024
2016-09-20T05:22:58.035Z,1024
2016-09-20T05:24:08.321Z,1028
2016-09-20T05:25:18.288Z,1044
2016-09-20T05:26:28.270Z,1060
2016-09-20T05:27:37.625Z,1064
2016-09-20T05:28:47.627Z,1064
2016-09-20T05:29:57.632Z,1076
2016-09-20T05:31:07.292Z,1092
2016-09-20T05:32:17.284Z,1064
2016-09-20T05:33:27.574Z,1056
2016-09-20T05:34:37.851Z,1060
2016-09-20T05:35:47.212Z,1084
2016-09-20T05:36:57.504Z,1096
2016-09-20T05:38:07.173Z,1108
2016-09-20T05:39:17.455Z,1124
2016-09-20T05:40:27.438Z,1140
2016-09-20T05:41:37.727Z,1152
2016-09-20T05:42:48.001Z,1172
2016-09-20T05:43:58.286Z,1200
2016-09-20T05:45:08.266Z,1224
2016-09-20T05:46:17.627Z,1252
2016-09-20T05:47:27.608Z,1268
2016-09-20T05:48:37.581Z,1272
2016-09-20T05:49:47.865Z,1276
2016-09-20T05:50:57.836Z,1280
2016-09-20T05:52:07.503Z,1304
2016-09-20T05:53:17.174Z,1340
2016-09-20T05:54:27.155Z,1372
2016-09-20T05:55:37.061Z,1408
2016-09-20T05:56:47.044Z,1460
2016-09-20T05:57:57.007Z,1500
2016-09-20T05:59:06.361Z,1556
2016-09-20T06:00:16.338Z,1620
2016-09-20T06:01:26.311Z,1692
2016-09-20T06:02:35.975Z,1756
2016-09-20T06:03:46.284Z,1816
2016-09-20T06:04:56.585Z,1880
2016-09-20T06:06:06.876Z,1956
2016-09-20T06:07:16.848Z,2016
2016-09-20T06:08:26.527Z,2060
2016-09-20T06:09:36.196Z,2088
2016-09-20T06:10:46.518Z,2148
2016-09-20T06:11:56.805Z,2208
2016-09-20T06:13:06.778Z,2272
2016-09-20T06:14:17.091Z,2352
2016-09-20T06:15:27.367Z,2504
2016-09-20T06:16:37.360Z,2800
2016-09-20T06:17:47.646Z,2764
2016-09-20T06:18:57.942Z,2836
2016-09-20T06:20:08.244Z,3016
2016-09-20T06:21:18.540Z,3196
2016-09-20T06:22:28.911Z,3308
2016-09-20T06:23:38.889Z,3480
2016-09-20T06:24:48.871Z,3524
2016-09-20T06:25:59.157Z,3552
2016-09-20T06:27:09.440Z,3296
2016-09-20T06:28:19.732Z,3264
2016-09-20T06:29:29.737Z,3452
2016-09-20T06:30:39.708Z,3472
2016-09-20T06:31:49.681Z,3460
2016-09-20T06:32:59.358Z,3620
2016-09-20T06:34:09.335Z,3608
2016-09-20T06:35:19.310Z,3660
2016-09-20T06:36:28.987Z,3660
2016-09-20T06:37:39.282Z,3816
2016-09-20T06:38:49.586Z,4156
2016-09-20T06:39:59.567Z,4232
2016-09-20T06:41:09.258Z,4048
2016-09-20T06:42:19.551Z,3600
2016-09-20T06:43:29.542Z,3420
2016-09-20T06:44:39.624Z,3040
2016-09-20T06:45:49.907Z,3028
2016-09-20T06:47:00.284Z,3008
2016-09-20T06:48:10.579Z,3004
2016-09-20T06:49:20.661Z,3048
2016-09-20T06:50:30.963Z,3136
2016-09-20T06:51:41.271Z,3236
2016-09-20T06:52:50.985Z,3408
2016-09-20T06:54:01.286Z,3592
2016-09-20T06:55:11.293Z,3804
2016-09-20T06:56:20.973Z,4060
2016-09-20T06:57:31.268Z,4560
2016-09-20T06:58:41.551Z,5248
2016-09-20T06:59:51.848Z,5220
2016-09-20T07:01:02.145Z,5428
2016-09-20T07:02:12.451Z,5396
2016-09-20T07:03:22.746Z,6000
2016-09-20T07:04:33.049Z,5912
2016-09-20T07:05:42.418Z,5904
2016-09-20T07:06:52.093Z,6224
2016-09-20T07:08:01.759Z,6460
2016-09-20T07:09:11.429Z,6888
2016-09-20T07:10:21.733Z,7280
2016-09-20T07:11:32.038Z,6696
2016-09-20T07:12:42.009Z,6752
2016-09-20T07:13:51.685Z,7140
2016-09-20T07:15:01.974Z,7148
2016-09-20T07:16:12.260Z,6952
2016-09-20T07:17:22.556Z,6508
2016-09-20T07:18:32.223Z,7056
2016-09-20T07:19:42.509Z,7388
2016-09-20T07:20:52.791Z,7504
2016-09-20T07:22:03.078Z,8048
2016-09-20T07:23:13.380Z,7652
2016-09-20T07:24:23.681Z,6864
2016-09-20T07:25:33.969Z,6676
2016-09-20T07:26:44.261Z,6748
2016-09-20T07:27:53.918Z,7200
2016-09-20T07:29:04.210Z,7140
2016-09-20T07:30:14.209Z,7184
2016-09-20T07:31:24.487Z,7404
2016-09-20T07:32:34.773Z,7776
2016-09-20T07:33:44.755Z,7340
2016-09-20T07:34:54.752Z,7212
2016-09-20T07:36:05.046Z,7092
2016-09-20T07:37:15.340Z,6796
2016-09-20T07:38:25.632Z,6624
2016-09-20T07:39:35.928Z,6512
2016-09-20T07:40:46.217Z,6452
2016-09-20T07:41:56.517Z,6424
2016-09-20T07:43:06.800Z,6408
2016-09-20T07:44:17.100Z,6384
2016-09-20T07:45:27.650Z,6352
2016-09-20T07:46:38.009Z,6288
2016-09-20T07:47:47.690Z,6240
2016-09-20T07:48:57.989Z,6144
2016-09-20T07:50:07.974Z,6000
2016-09-20T07:51:17.950Z,5888
2016-09-20T07:52:27.627Z,5800
2016-09-20T07:53:37.919Z,5712
2016-09-20T07:54:48.246Z,5672
2016-09-20T07:55:58.492Z,5676
2016-09-20T07:57:08.785Z,5644
2016-09-20T07:58:19.080Z,5628
2016-09-20T07:59:29.417Z,5632
2016-09-20T08:00:39.737Z,5604
2016-09-20T08:01:49.716Z,5548
2016-09-20T08:03:00.029Z,5484
2016-09-20T08:04:10.314Z,5424
2016-09-20T08:05:20.305Z,5328
2016-09-20T08:06:30.602Z,5184
2016-09-20T08:07:40.894Z,5048
2016-09-20T08:08:51.211Z,5060
2016-09-20T08:10:01.508Z,5072
2016-09-20T08:11:11.803Z,5124
2016-09-20T08:12:21.481Z,5200
2016-09-20T08:13:31.783Z,5272
2016-09-20T08:14:42.072Z,5348
2016-09-20T08:15:52.065Z,5424
2016-09-20T08:17:02.042Z,5504
2016-09-20T08:18:12.014Z,5584
2016-09-20T08:19:22.303Z,5672
2016-09-20T08:20:32.607Z,5740
2016-09-20T08:21:42.898Z,5816
2016-09-20T08:22:53.191Z,5872
2016-09-20T08:24:02.865Z,5964
2016-09-20T08:25:12.555Z,6080
2016-09-20T08:26:22.836Z,6240
2016-09-20T08:27:32.512Z,6436
2016-09-20T08:28:42.808Z,6596
2016-09-20T08:29:52.797Z,6712
2016-09-20T08:31:02.459Z,6828
2016-09-20T08:32:12.469Z,6980
2016-09-20T08:33:22.453Z,7108
2016-09-20T08:34:32.437Z,7164
2016-09-20T08:35:42.777Z,7248
2016-09-20T08:36:53.067Z,7296
2016-09-20T08:38:03.368Z,7284
2016-09-20T08:39:13.668Z,7208
2016-09-20T08:40:23.961Z,7236
2016-09-20T08:41:33.950Z,7364
2016-09-20T08:42:43.944Z,7396
2016-09-20T08:43:53.633Z,7592
2016-09-20T08:45:03.923Z,7884
2016-09-20T08:46:13.601Z,8148
2016-09-20T08:47:23.915Z,10336
2016-09-20T08:48:34.200Z,8456
2016-09-20T08:49:44.195Z,9100
2016-09-20T08:50:54.175Z,9640
2016-09-20T08:52:04.478Z,8128
2016-09-20T08:53:14.774Z,8980
2016-09-20T08:54:24.768Z,8396
2016-09-20T08:55:35.072Z,8712
2016-09-20T08:56:45.364Z,10252
2016-09-20T08:57:55.352Z,8196
2016-09-20T08:59:05.328Z,8384
2016-09-20T09:00:15.320Z,8540
2016-09-20T09:01:25.306Z,8008
2016-09-20T09:02:35.589Z,7820
2016-09-20T09:03:45.876Z,7688
2016-09-20T09:04:55.877Z,7512
2016-09-20T09:06:05.851Z,7464
2016-09-20T09:07:16.153Z,7380
2016-09-20T09:08:26.454Z,7292
2016-09-20T09:09:36.758Z,7408
2016-09-20T09:10:46.754Z,7284
2016-09-20T09:11:57.095Z,7256
2016-09-20T09:13:07.404Z,7360
2016-09-20T09:14:17.699Z,7228
2016-09-20T09:15:27.680Z,8204
2016-09-20T09:16:37.973Z,7732
2016-09-20T09:17:47.971Z,8620
2016-09-20T09:18:58.255Z,8672
2016-09-20T09:20:08.562Z,8408
2016-09-20T09:21:18.854Z,8340
2016-09-20T09:22:29.152Z,8268
2016-09-20T09:23:39.445Z,8192
2016-09-20T09:24:49.446Z,8156
2016-09-20T09:25:59.748Z,8148
2016-09-20T09:27:10.051Z,8084
2016-09-20T09:28:20.345Z,8040
2016-09-20T09:29:30.632Z,8092
2016-09-20T09:30:40.915Z,8120
2016-09-20T09:31:51.197Z,8092
2016-09-20T09:33:01.482Z,8088
2016-09-20T09:34:11.783Z,8092
2016-09-20T09:35:22.111Z,8120
2016-09-20T09:36:32.100Z,8136
2016-09-20T09:37:42.405Z,8096
2016-09-20T09:38:52.691Z,8172
2016-09-20T09:40:02.993Z,8232
2016-09-20T09:41:12.671Z,8224
2016-09-20T09:42:22.960Z,8188
2016-09-20T09:43:33.265Z,8172
2016-09-20T09:44:43.244Z,8196
2016-09-20T09:45:53.546Z,8168
2016-09-20T09:47:03.858Z,8264
2016-09-20T09:48:13.851Z,8268
2016-09-20T09:49:24.146Z,8308
2016-09-20T09:50:34.124Z,8436
2016-09-20T09:51:43.798Z,8456
2016-09-20T09:52:54.094Z,8412
2016-09-20T09:54:04.392Z,8484
2016-09-20T09:55:14.705Z,8572
2016-09-20T09:56:25.008Z,8592
2016-09-20T09:57:34.991Z,8648
2016-09-20T09:58:45.460Z,8644
2016-09-20T09:59:55.763Z,3720
2016-09-20T10:01:05.949Z,3488
2016-09-20T10:02:16.265Z,8756
2016-09-20T10:03:26.562Z,8836
2016-09-20T10:04:36.243Z,9008
2016-09-20T10:05:46.224Z,9064
2016-09-20T10:06:56.207Z,9096
2016-09-20T10:08:06.588Z,9124
2016-09-20T10:09:16.876Z,9024
2016-09-20T10:10:27.178Z,9000
2016-09-20T10:11:37.171Z,9080
2016-09-20T10:12:47.161Z,9116
2016-09-20T10:13:57.453Z,4372
2016-09-20T10:15:07.738Z,9160
2016-09-20T10:16:17.729Z,8956
2016-09-20T10:17:27.718Z,9024
2016-09-20T10:18:37.695Z,9024
2016-09-20T10:19:47.999Z,9020
2016-09-20T10:20:57.980Z,9080
2016-09-20T10:22:08.264Z,9164
2016-09-20T10:23:18.561Z,9408
2016-09-20T10:24:28.868Z,8568
2016-09-20T10:25:39.158Z,9120
2016-09-20T10:26:49.441Z,9432
2016-09-20T10:27:59.423Z,9476
2016-09-20T10:29:09.709Z,9400
2016-09-20T10:30:19.386Z,9240
2016-09-20T10:31:29.673Z,9304
2016-09-20T10:32:39.964Z,9440
2016-09-20T10:33:50.267Z,9436
2016-09-20T10:35:00.242Z,9616
2016-09-20T10:36:10.541Z,9912
2016-09-20T10:37:20.901Z,10028
2016-09-20T10:38:30.288Z,8692
2016-09-20T10:39:40.579Z,10192
2016-09-20T10:40:50.865Z,10400
2016-09-20T10:42:01.424Z,5960
2016-09-20T10:43:11.416Z,5772
2016-09-20T10:44:21.736Z,6852
2016-09-20T10:45:31.736Z,5484
2016-09-20T10:46:42.025Z,5084
2016-09-20T10:47:52.327Z,5196
2016-09-20T10:49:02.620Z,5736
2016-09-20T10:50:12.303Z,6604
2016-09-20T10:51:22.591Z,12260
2016-09-20T10:52:32.584Z,11012
2016-09-20T10:53:42.892Z,7836
2016-09-20T10:54:53.188Z,11756
2016-09-20T10:56:03.488Z,7652
2016-09-20T10:57:13.479Z,6908
2016-09-20T10:58:23.768Z,6756
2016-09-20T10:59:34.058Z,7028
2016-09-20T11:00:43.729Z,7284
2016-09-20T11:01:54.022Z,7248
2016-09-20T11:03:04.342Z,7344
2016-09-20T11:04:14.630Z,7248
2016-09-20T11:05:24.923Z,6876
2016-09-20T11:06:35.214Z,6596
2016-09-20T11:07:45.501Z,6184
2016-09-20T11:08:55.834Z,5920
2016-09-20T11:10:06.124Z,5660
2016-09-20T11:11:16.141Z,5428
2016-09-20T11:12:26.441Z,5184
2016-09-20T11:13:36.743Z,4996
2016-09-20T11:14:47.055Z,4940
2016-09-20T11:15:57.047Z,4940
2016-09-20T11:17:07.344Z,5024
2016-09-20T11:18:17.656Z,5224
2016-09-20T11:19:27.967Z,5496
2016-09-20T11:20:37.955Z,6320
2016-09-20T11:21:48.242Z,10964
2016-09-20T11:22:58.553Z,6516
2016-09-20T11:24:08.854Z,7092
2016-09-20T11:25:19.151Z,8244
2016-09-20T11:26:29.452Z,7028
2016-09-20T11:27:39.435Z,6852
2016-09-20T11:28:49.757Z,6244
2016-09-20T11:30:00.058Z,5808
2016-09-20T11:31:10.360Z,5420
2016-09-20T11:32:20.654Z,5088
2016-09-20T11:33:30.658Z,4768
2016-09-20T11:34:40.359Z,4492
2016-09-20T11:35:50.672Z,4352
2016-09-20T11:37:00.967Z,4300
2016-09-20T11:38:11.261Z,4328
2016-09-20T11:39:21.261Z,4392
2016-09-20T11:40:31.579Z,4468
2016-09-20T11:41:41.885Z,4488
2016-09-20T11:42:51.887Z,4488
2016-09-20T11:44:02.199Z,4512
2016-09-20T11:45:12.185Z,4500
2016-09-20T11:46:22.471Z,4536
2016-09-20T11:47:32.769Z,4556
2016-09-20T11:48:43.060Z,4516
2016-09-20T11:49:53.058Z,4496
2016-09-20T11:51:03.363Z,4476
2016-09-20T11:52:13.673Z,4488
2016-09-20T11:53:23.656Z,4612
2016-09-20T11:54:33.983Z,4748
2016-09-20T11:55:44.275Z,4804
2016-09-20T11:56:54.572Z,4804
2016-09-20T11:58:04.573Z,4740
2016-09-20T11:59:14.560Z,4720
2016-09-20T12:00:24.862Z,4728
2016-09-20T12:01:34.875Z,4652
2016-09-20T12:02:44.866Z,4492
2016-09-20T12:03:54.847Z,4292
2016-09-20T12:05:04.836Z,4132
2016-09-20T12:06:15.135Z,4140
2016-09-20T12:07:25.427Z,4252
2016-09-20T12:08:35.710Z,4396
2016-09-20T12:09:46.008Z,4512
2016-09-20T12:10:56.036Z,4608
2016-09-20T12:12:06.326Z,4624
2016-09-20T12:13:16.629Z,4576
2016-09-20T12:14:26.610Z,4576
2016-09-20T12:15:36.617Z,4584
2016-09-20T12:16:46.940Z,4560
2016-09-20T12:17:57.264Z,4512
2016-09-20T12:19:07.554Z,4404
2016-09-20T12:20:17.857Z,4248
2016-09-20T12:21:28.152Z,4132
2016-09-20T12:22:38.461Z,4040
2016-09-20T12:23:48.747Z,3968
2016-09-20T12:24:58.728Z,3876
2016-09-20T12:26:08.717Z,3896
2016-09-20T12:27:19.026Z,4108
2016-09-20T12:28:29.342Z,4380
2016-09-20T12:29:39.635Z,4656
2016-09-20T12:30:49.932Z,4928
2016-09-20T12:32:00.247Z,5120
2016-09-20T12:33:10.241Z,5240
2016-09-20T12:34:20.571Z,5280
2016-09-20T12:35:30.558Z,5268
2016-09-20T12:36:40.554Z,5292
2016-09-20T12:37:50.843Z,5344
2016-09-20T12:39:01.129Z,5460
2016-09-20T12:40:11.451Z,5704
2016-09-20T12:41:21.747Z,5940
2016-09-20T12:42:31.747Z,6064
2016-09-20T12:43:42.051Z,6164
2016-09-20T12:44:52.349Z,6204
2016-09-20T12:46:02.652Z,6188
2016-09-20T12:47:12.953Z,6208
2016-09-20T12:48:22.627Z,6200
2016-09-20T12:49:32.919Z,6176
2016-09-20T12:50:43.220Z,6164
2016-09-20T12:51:53.213Z,6176
2016-09-20T12:53:03.224Z,6180
2016-09-20T12:54:13.220Z,6204
2016-09-20T12:55:23.195Z,6228
2016-09-20T12:56:33.489Z,6248
2016-09-20T12:57:43.489Z,6224
2016-09-20T12:58:53.481Z,6204
2016-09-20T13:00:03.465Z,6192
2016-09-20T13:01:13.760Z,6196
2016-09-20T13:02:23.775Z,6236
2016-09-20T13:03:34.069Z,6272
2016-09-20T13:04:44.055Z,6360
2016-09-20T13:05:54.373Z,6464
2016-09-20T13:07:04.684Z,6576
2016-09-20T13:08:15.225Z,6700
2016-09-20T13:09:25.518Z,6856
2016-09-20T13:10:35.202Z,7060
2016-09-20T13:11:45.515Z,7292
2016-09-20T13:12:55.870Z,7452
2016-09-20T13:14:06.205Z,7484
2016-09-20T13:15:16.215Z,7856
2016-09-20T13:16:26.512Z,9824
2016-09-20T13:17:36.818Z,7920
2016-09-20T13:18:46.485Z,7924
2016-09-20T13:19:55.857Z,8208
2016-09-20T13:21:06.163Z,7544
2016-09-20T13:22:16.470Z,8368
2016-09-20T13:23:26.447Z,10564
2016-09-20T13:24:36.723Z,10228
2016-09-20T13:25:46.716Z,10040
2016-09-20T13:26:57.037Z,9900
2016-09-20T13:28:07.026Z,9836
2016-09-20T13:29:17.335Z,9860
2016-09-20T13:30:27.647Z,9704
2016-09-20T13:31:37.345Z,7200
2016-09-20T13:32:47.035Z,6852
2016-09-20T13:33:57.339Z,6448
2016-09-20T13:35:07.649Z,5792
2016-09-20T13:36:17.556Z,5224
2016-09-20T13:37:27.890Z,4996
2016-09-20T13:38:38.181Z,4804
2016-09-20T13:39:48.172Z,4704
2016-09-20T13:40:58.192Z,4708
2016-09-20T13:42:08.496Z,4784
2016-09-20T13:43:18.799Z,4832
2016-09-20T13:44:28.494Z,4912
2016-09-20T13:45:38.788Z,4872
2016-09-20T13:46:48.791Z,4924
2016-09-20T13:47:58.795Z,4956
2016-09-20T13:49:08.779Z,5016
2016-09-20T13:50:18.793Z,5024
2016-09-20T13:51:29.092Z,4996
2016-09-20T13:52:39.385Z,4844
2016-09-20T13:53:49.607Z,4624
2016-09-20T13:54:59.906Z,4444
2016-09-20T13:56:10.213Z,4312
2016-09-20T13:57:20.213Z,4244
2016-09-20T13:58:30.508Z,4180
2016-09-20T13:59:40.197Z,4204
2016-09-20T14:00:50.190Z,4304
2016-09-20T14:02:00.490Z,4544
2016-09-20T14:03:10.468Z,4804
2016-09-20T14:04:20.459Z,5080
2016-09-20T14:05:30.768Z,5064
2016-09-20T14:06:40.754Z,4960
2016-09-20T14:07:51.052Z,5336
2016-09-20T14:09:00.742Z,7892
2016-09-20T14:10:10.744Z,7412
2016-09-20T14:11:21.051Z,8004
2016-09-20T14:12:31.052Z,8000
2016-09-20T14:13:41.345Z,6104
2016-09-20T14:14:51.383Z,6472
2016-09-20T14:16:01.675Z,6504
2016-09-20T14:17:11.670Z,5316
2016-09-20T14:18:21.976Z,5556
2016-09-20T14:19:32.279Z,5272
2016-09-20T14:20:42.269Z,5856
2016-09-20T14:21:52.583Z,5048
2016-09-20T14:23:02.584Z,4832
2016-09-20T14:24:12.592Z,4600
2016-09-20T14:25:22.318Z,4368
2016-09-20T14:26:32.624Z,4232
2016-09-20T14:27:42.936Z,4224
2016-09-20T14:28:53.253Z,4352
2016-09-20T14:30:03.244Z,4452
2016-09-20T14:31:13.540Z,4568
2016-09-20T14:32:23.544Z,6048
2016-09-20T14:33:33.843Z,7256
2016-09-20T14:34:43.843Z,7220
2016-09-20T14:35:53.831Z,7380
2016-09-20T14:37:03.830Z,4940
2016-09-20T14:38:13.830Z,4848
2016-09-20T14:39:23.849Z,5872
2016-09-20T14:40:33.923Z,5656
2016-09-20T14:41:43.912Z,4676
2016-09-20T14:42:55.465Z,3908
2016-09-20T14:44:07.088Z,3456
2016-09-20T14:45:17.400Z,3368
2016-09-20T14:46:27.706Z,3364
2016-09-20T14:47:37.077Z,3424
2016-09-20T14:48:46.771Z,3416
2016-09-20T14:49:56.807Z,3376
2016-09-20T14:51:06.812Z,3320
2016-09-20T14:52:16.513Z,3280
2016-09-20T14:53:25.904Z,3284
2016-09-20T14:54:36.216Z,3300
2016-09-20T14:55:46.522Z,3320
2016-09-20T14:56:56.524Z,3368
2016-09-20T14:58:06.816Z,3424
2016-09-20T14:59:16.512Z,3432
2016-09-20T15:00:26.215Z,3352
2016-09-20T15:01:36.219Z,3188
2016-09-20T15:02:46.523Z,2996
2016-09-20T15:03:56.519Z,2832
2016-09-20T15:05:06.821Z,2712
2016-09-20T15:06:16.514Z,2620
2016-09-20T15:07:26.822Z,2520
2016-09-20T15:08:36.816Z,2404
2016-09-20T15:09:46.824Z,2328
2016-09-20T15:10:57.127Z,2312
2016-09-20T15:12:07.127Z,2300
2016-09-20T15:13:17.142Z,2276
2016-09-20T15:14:27.120Z,2244
2016-09-20T15:15:37.114Z,2212
2016-09-20T15:16:47.103Z,2224
2016-09-20T15:17:56.792Z,2256
2016-09-20T15:19:06.866Z,2292
2016-09-20T15:20:16.861Z,2324
2016-09-20T15:21:26.553Z,2344
2016-09-20T15:22:36.847Z,2340
2016-09-20T15:23:46.517Z,2340
2016-09-20T15:24:56.208Z,2372
2016-09-20T15:26:06.517Z,2432
2016-09-20T15:27:16.834Z,2492
2016-09-20T15:28:27.129Z,2536
2016-09-20T15:29:37.136Z,2588
2016-09-20T15:30:47.459Z,3776
2016-09-20T15:31:57.451Z,3636
2016-09-20T15:33:07.433Z,3416
2016-09-20T15:34:17.130Z,3236
2016-09-20T15:35:26.842Z,3088
2016-09-20T15:36:37.156Z,2932
2016-09-20T15:37:47.379Z,2776
2016-09-20T15:38:57.078Z,2120
2016-09-20T15:40:06.767Z,2056
2016-09-20T15:41:17.056Z,2064
2016-09-20T15:42:26.819Z,2100
2016-09-20T15:43:37.133Z,2732
2016-09-20T15:44:46.815Z,2788
2016-09-20T15:45:56.498Z,2844
2016-09-20T15:47:06.804Z,2768
2016-09-20T15:48:17.135Z,2556
2016-09-20T15:49:27.481Z,2304
2016-09-20T15:50:37.825Z,1836
2016-09-20T15:51:48.200Z,1808
2016-09-20T15:52:58.563Z,1784
2016-09-20T15:54:08.622Z,1752
2016-09-20T15:55:18.956Z,1684
2016-09-20T15:56:29.293Z,1620
2016-09-20T15:57:39.339Z,1568
2016-09-20T15:58:49.769Z,1512
2016-09-20T15:59:59.170Z,1452
2016-09-20T16:01:09.281Z,1400
2016-09-20T16:02:19.631Z,1360
2016-09-20T16:03:29.977Z,1316
2016-09-20T16:04:40.079Z,1280
2016-09-20T16:05:50.473Z,1244
2016-09-20T16:07:00.540Z,1216
2016-09-20T16:08:10.950Z,1188
2016-09-20T16:09:21.316Z,1164
2016-09-20T16:10:31.270Z,1148
2016-09-20T16:11:42.007Z,1220
2016-09-20T16:12:52.251Z,1228
2016-09-20T16:14:02.656Z,1196
2016-09-20T16:15:12.852Z,1076
2016-09-20T16:16:22.756Z,1040
2016-09-20T16:17:33.092Z,1024
2016-09-20T16:18:43.479Z,988
2016-09-20T16:19:53.286Z,956
2016-09-20T16:21:03.747Z,936
2016-09-20T16:22:13.492Z,912
2016-09-20T16:23:23.548Z,888
2016-09-20T16:24:33.987Z,860
2016-09-20T16:25:44.011Z,824
2016-09-20T16:26:54.043Z,796
2016-09-20T16:28:03.795Z,760
2016-09-20T16:29:14.103Z,728